Spacecraft Satellite overpass computed based on SGP4 code. Updated every day at 2:25 LT
Spacecraft : Terra    
         GMT                             Satellite      Satellite     Solar          Solar         Scat ang       
  year-mo-da hr:mn:sc    elevation     azimuth    elevation   azimuth    (bk=180)     
  2022-07-01 08:36:47     31.2             95.2          54.5           127.9         147.2
  2022-07-01 10:14:36     37.9            293.7          62.9           168.9         109.9
  2022-07-01 19:47:15     55.9             70.3          -7.4           321.3        -999.0
  2022-07-01 21:25:20     21.2            268.6         -14.8           343.0        -999.0
Spacecraft : Aqua    
         GMT                             Satellite      Satellite     Solar          Solar         Scat ang       
  year-mo-da hr:mn:sc    elevation     azimuth    elevation   azimuth    (bk=180)     
  2022-07-01 00:46:37     83.0            104.5         -10.9            30.3        -999.0
  2022-07-01 02:23:45     16.7            303.4          -0.8            50.4        -999.0
  2022-07-01 10:19:23     23.3             60.7          63.0           171.3         101.9
  2022-07-01 11:56:48     54.8            259.3          58.9           217.8         157.3
  2022-07-01 23:51:12     27.4             94.1         -14.7            17.8        -999.0
Spacecraft : CALIPSO    
         GMT                             Satellite      Satellite     Solar          Solar         Scat ang       
  year-mo-da hr:mn:sc    elevation     azimuth    elevation   azimuth    (bk=180)     
  2022-07-01 00:53:07     21.9             92.2         -10.4            31.8        -999.0
  2022-07-01 02:30:45     52.5            290.5           0.2            51.7          71.8
  2022-07-01 12:01:10     38.6             66.5          58.5           219.5          99.7
  2022-07-01 13:38:35     29.6            264.8          45.7           249.9         160.1
Spacecraft : CloudSat    
         GMT                             Satellite      Satellite     Solar          Solar         Scat ang       
  year-mo-da hr:mn:sc    elevation     azimuth    elevation   azimuth    (bk=180)     
  2022-07-01 00:53:28     21.3             91.9         -10.4            31.8        -999.0
  2022-07-01 02:31:08     54.1            290.3           0.2            51.8          72.3
  2022-07-01 12:01:31     37.7             66.2          58.5           219.6          98.7
  2022-07-01 13:38:56     30.5            264.5          45.6           250.0         161.1
Spacecraft : ISS    
         GMT                             Satellite      Satellite     Solar          Solar         Scat ang       
  year-mo-da hr:mn:sc    elevation     azimuth    elevation   azimuth    (bk=180)     
  2022-07-01 01:24:10     42.7            151.4          -7.5            38.4        -999.0
  2022-07-01 03:00:51     71.7            350.9           3.7            57.4         100.7
  2022-07-01 04:37:46     74.9             10.8          17.7            74.9         113.7
  2022-07-01 06:14:25     38.2            210.1          33.1            92.7          92.0